sensor_id;sensor_type;location;lat;lon;timestamp;P1;durP1;ratioP1;P2;durP2;ratioP2
69878;SDS011;57161;43.136;24.706;2022-12-24T00:01:52;16.15;;;10.45;;
69878;SDS011;57161;43.136;24.706;2022-12-24T00:04:18;16.23;;;9.77;;
69878;SDS011;57161;43.136;24.706;2022-12-24T00:06:43;14.02;;;9.05;;
69878;SDS011;57161;43.136;24.706;2022-12-24T00:09:08;14.82;;;9.68;;
69878;SDS011;57161;43.136;24.706;2022-12-24T00:11:34;16.15;;;9.80;;
69878;SDS011;57161;43.136;24.706;2022-12-24T00:14:00;19.83;;;10.77;;
69878;SDS011;57161;43.136;24.706;2022-12-24T00:16:25;15.40;;;9.90;;
69878;SDS011;57161;43.136;24.706;2022-12-24T00:18:51;16.48;;;10.00;;
69878;SDS011;57161;43.136;24.706;2022-12-24T00:21:17;15.52;;;9.57;;
69878;SDS011;57161;43.136;24.706;2022-12-24T00:23:42;17.92;;;10.07;;
69878;SDS011;57161;43.136;24.706;2022-12-24T00:26:08;17.25;;;10.38;;
69878;SDS011;57161;43.136;24.706;2022-12-24T00:28:34;17.33;;;11.13;;
69878;SDS011;57161;43.136;24.706;2022-12-24T00:30:59;17.80;;;10.60;;
69878;SDS011;57161;43.136;24.706;2022-12-24T00:33:31;18.67;;;9.93;;
69878;SDS011;57161;43.136;24.706;2022-12-24T00:35:56;17.65;;;10.05;;
69878;SDS011;57161;43.136;24.706;2022-12-24T00:38:22;21.38;;;9.80;;
69878;SDS011;57161;43.136;24.706;2022-12-24T00:40:47;16.83;;;11.35;;
69878;SDS011;57161;43.136;24.706;2022-12-24T00:43:13;15.70;;;9.20;;
69878;SDS011;57161;43.136;24.706;2022-12-24T00:45:38;14.57;;;9.25;;
69878;SDS011;57161;43.136;24.706;2022-12-24T00:48:04;16.25;;;9.40;;
69878;SDS011;57161;43.136;24.706;2022-12-24T00:50:29;17.52;;;10.38;;
69878;SDS011;57161;43.136;24.706;2022-12-24T00:52:55;17.20;;;10.85;;
69878;SDS011;57161;43.136;24.706;2022-12-24T00:55:20;15.55;;;10.27;;
69878;SDS011;57161;43.136;24.706;2022-12-24T00:57:46;15.48;;;9.95;;
69878;SDS011;57161;43.136;24.706;2022-12-24T01:00:11;25.55;;;11.77;;
69878;SDS011;57161;43.136;24.706;2022-12-24T01:02:37;17.55;;;10.70;;
69878;SDS011;57161;43.136;24.706;2022-12-24T01:05:02;19.30;;;12.50;;
69878;SDS011;57161;43.136;24.706;2022-12-24T01:07:34;18.67;;;10.82;;
69878;SDS011;57161;43.136;24.706;2022-12-24T01:10:00;16.05;;;9.63;;
69878;SDS011;57161;43.136;24.706;2022-12-24T01:12:26;17.45;;;10.35;;
69878;SDS011;57161;43.136;24.706;2022-12-24T01:14:52;15.68;;;9.27;;
69878;SDS011;57161;43.136;24.706;2022-12-24T01:17:17;17.38;;;9.73;;
69878;SDS011;57161;43.136;24.706;2022-12-24T01:19:43;17.50;;;10.43;;
69878;SDS011;57161;43.136;24.706;2022-12-24T01:22:08;17.75;;;10.30;;
69878;SDS011;57161;43.136;24.706;2022-12-24T01:24:34;20.15;;;10.68;;
69878;SDS011;57161;43.136;24.706;2022-12-24T01:26:59;19.02;;;9.98;;
69878;SDS011;57161;43.136;24.706;2022-12-24T01:29:24;15.73;;;9.57;;
69878;SDS011;57161;43.136;24.706;2022-12-24T01:31:50;16.27;;;9.65;;
69878;SDS011;57161;43.136;24.706;2022-12-24T01:34:15;17.30;;;9.38;;
69878;SDS011;57161;43.136;24.706;2022-12-24T01:36:41;18.58;;;10.07;;
69878;SDS011;57161;43.136;24.706;2022-12-24T01:39:06;18.38;;;10.27;;
69878;SDS011;57161;43.136;24.706;2022-12-24T01:41:32;16.55;;;10.40;;
69878;SDS011;57161;43.136;24.706;2022-12-24T01:46:58;17.35;;;9.73;;
69878;SDS011;57161;43.136;24.706;2022-12-24T01:49:47;15.77;;;9.75;;
69878;SDS011;57161;43.136;24.706;2022-12-24T01:52:18;16.58;;;9.52;;
69878;SDS011;57161;43.136;24.706;2022-12-24T01:54:48;14.52;;;8.95;;
69878;SDS011;57161;43.136;24.706;2022-12-24T01:57:21;14.35;;;9.13;;
69878;SDS011;57161;43.136;24.706;2022-12-24T01:59:54;16.05;;;9.55;;
69878;SDS011;57161;43.136;24.706;2022-12-24T02:02:22;15.77;;;9.23;;
69878;SDS011;57161;43.136;24.706;2022-12-24T02:07:19;16.80;;;9.55;;
69878;SDS011;57161;43.136;24.706;2022-12-24T02:09:45;17.38;;;10.10;;
69878;SDS011;57161;43.136;24.706;2022-12-24T02:12:13;15.10;;;9.02;;
69878;SDS011;57161;43.136;24.706;2022-12-24T02:14:39;16.17;;;9.55;;
69878;SDS011;57161;43.136;24.706;2022-12-24T02:34:06;14.13;;;8.70;;
69878;SDS011;57161;43.136;24.706;2022-12-24T02:36:56;16.02;;;9.02;;
69878;SDS011;57161;43.136;24.706;2022-12-24T02:39:41;16.00;;;8.77;;
69878;SDS011;57161;43.136;24.706;2022-12-24T02:42:10;16.15;;;8.35;;
69878;SDS011;57161;43.136;24.706;2022-12-24T02:44:50;14.75;;;9.48;;
69878;SDS011;57161;43.136;24.706;2022-12-24T02:47:20;16.48;;;8.85;;
69878;SDS011;57161;43.136;24.706;2022-12-24T02:49:49;15.90;;;8.63;;
69878;SDS011;57161;43.136;24.706;2022-12-24T02:52:34;16.13;;;8.40;;
69878;SDS011;57161;43.136;24.706;2022-12-24T02:55:17;14.45;;;8.05;;
69878;SDS011;57161;43.136;24.706;2022-12-24T03:00:24;15.35;;;8.40;;
69878;SDS011;57161;43.136;24.706;2022-12-24T03:02:54;13.50;;;8.70;;
69878;SDS011;57161;43.136;24.706;2022-12-24T03:13:12;13.13;;;7.05;;
69878;SDS011;57161;43.136;24.706;2022-12-24T03:15:40;14.45;;;7.60;;
69878;SDS011;57161;43.136;24.706;2022-12-24T03:18:08;11.75;;;6.85;;
69878;SDS011;57161;43.136;24.706;2022-12-24T03:20:40;18.25;;;8.23;;
69878;SDS011;57161;43.136;24.706;2022-12-24T03:23:09;13.05;;;6.82;;
69878;SDS011;57161;43.136;24.706;2022-12-24T03:25:36;11.98;;;7.25;;
69878;SDS011;57161;43.136;24.706;2022-12-24T03:28:05;12.57;;;7.33;;
69878;SDS011;57161;43.136;24.706;2022-12-24T03:30:32;15.35;;;7.57;;
69878;SDS011;57161;43.136;24.706;2022-12-24T03:32:58;12.13;;;7.45;;
69878;SDS011;57161;43.136;24.706;2022-12-24T03:35:24;12.25;;;7.72;;
69878;SDS011;57161;43.136;24.706;2022-12-24T03:37:49;14.00;;;6.95;;
69878;SDS011;57161;43.136;24.706;2022-12-24T03:40:15;13.18;;;7.60;;
69878;SDS011;57161;43.136;24.706;2022-12-24T03:42:40;16.77;;;8.82;;
69878;SDS011;57161;43.136;24.706;2022-12-24T03:45:06;14.02;;;8.00;;
69878;SDS011;57161;43.136;24.706;2022-12-24T03:47:32;11.52;;;6.88;;
69878;SDS011;57161;43.136;24.706;2022-12-24T03:49:58;12.32;;;7.00;;
69878;SDS011;57161;43.136;24.706;2022-12-24T03:52:23;10.95;;;7.43;;
69878;SDS011;57161;43.136;24.706;2022-12-24T03:54:48;12.70;;;7.10;;
69878;SDS011;57161;43.136;24.706;2022-12-24T03:57:14;13.07;;;7.68;;
69878;SDS011;57161;43.136;24.706;2022-12-24T03:59:39;13.20;;;7.38;;
69878;SDS011;57161;43.136;24.706;2022-12-24T04:02:05;13.98;;;7.70;;
69878;SDS011;57161;43.136;24.706;2022-12-24T04:04:30;13.15;;;7.72;;
69878;SDS011;57161;43.136;24.706;2022-12-24T04:06:57;14.02;;;7.65;;
69878;SDS011;57161;43.136;24.706;2022-12-24T04:09:23;15.50;;;7.15;;
69878;SDS011;57161;43.136;24.706;2022-12-24T04:11:48;13.75;;;7.45;;
69878;SDS011;57161;43.136;24.706;2022-12-24T04:14:14;12.55;;;7.70;;
69878;SDS011;57161;43.136;24.706;2022-12-24T04:16:39;16.83;;;8.10;;
69878;SDS011;57161;43.136;24.706;2022-12-24T04:19:05;13.88;;;7.68;;
69878;SDS011;57161;43.136;24.706;2022-12-24T04:21:30;13.65;;;7.63;;
69878;SDS011;57161;43.136;24.706;2022-12-24T04:23:56;14.93;;;7.78;;
69878;SDS011;57161;43.136;24.706;2022-12-24T04:26:21;11.57;;;6.80;;
69878;SDS011;57161;43.136;24.706;2022-12-24T04:28:47;11.45;;;6.82;;
69878;SDS011;57161;43.136;24.706;2022-12-24T04:31:13;12.10;;;6.88;;
69878;SDS011;57161;43.136;24.706;2022-12-24T04:33:40;17.67;;;10.63;;
69878;SDS011;57161;43.136;24.706;2022-12-24T04:36:06;24.13;;;16.35;;
69878;SDS011;57161;43.136;24.706;2022-12-24T04:38:32;19.75;;;13.55;;
69878;SDS011;57161;43.136;24.706;2022-12-24T04:43:26;11.35;;;7.00;;
69878;SDS011;57161;43.136;24.706;2022-12-24T04:45:52;9.07;;;5.63;;
69878;SDS011;57161;43.136;24.706;2022-12-24T04:48:17;10.48;;;6.20;;
69878;SDS011;57161;43.136;24.706;2022-12-24T04:50:43;10.95;;;6.20;;
69878;SDS011;57161;43.136;24.706;2022-12-24T04:53:09;11.88;;;6.00;;
69878;SDS011;57161;43.136;24.706;2022-12-24T04:55:35;15.35;;;7.05;;
69878;SDS011;57161;43.136;24.706;2022-12-24T04:58:02;13.77;;;6.63;;
69878;SDS011;57161;43.136;24.706;2022-12-24T05:00:28;17.08;;;7.20;;
69878;SDS011;57161;43.136;24.706;2022-12-24T05:02:53;11.80;;;6.55;;
69878;SDS011;57161;43.136;24.706;2022-12-24T05:05:19;11.00;;;6.82;;
69878;SDS011;57161;43.136;24.706;2022-12-24T05:07:44;13.82;;;6.75;;
69878;SDS011;57161;43.136;24.706;2022-12-24T05:10:10;13.23;;;7.15;;
69878;SDS011;57161;43.136;24.706;2022-12-24T05:12:35;11.63;;;6.18;;
69878;SDS011;57161;43.136;24.706;2022-12-24T05:15:01;10.65;;;5.82;;
69878;SDS011;57161;43.136;24.706;2022-12-24T05:17:28;13.00;;;6.20;;
69878;SDS011;57161;43.136;24.706;2022-12-24T05:19:53;11.98;;;5.57;;
69878;SDS011;57161;43.136;24.706;2022-12-24T05:22:19;11.38;;;5.53;;
69878;SDS011;57161;43.136;24.706;2022-12-24T05:25:03;10.48;;;6.22;;
69878;SDS011;57161;43.136;24.706;2022-12-24T05:27:46;11.98;;;6.18;;
69878;SDS011;57161;43.136;24.706;2022-12-24T05:30:12;11.50;;;6.28;;
69878;SDS011;57161;43.136;24.706;2022-12-24T05:32:37;11.85;;;6.00;;
69878;SDS011;57161;43.136;24.706;2022-12-24T05:35:03;10.55;;;6.00;;
69878;SDS011;57161;43.136;24.706;2022-12-24T05:37:28;11.35;;;5.90;;
69878;SDS011;57161;43.136;24.706;2022-12-24T05:39:54;12.13;;;6.28;;
69878;SDS011;57161;43.136;24.706;2022-12-24T05:42:19;12.80;;;6.50;;
69878;SDS011;57161;43.136;24.706;2022-12-24T05:44:45;11.13;;;6.10;;
69878;SDS011;57161;43.136;24.706;2022-12-24T05:47:10;11.32;;;5.65;;
69878;SDS011;57161;43.136;24.706;2022-12-24T05:49:35;11.73;;;6.03;;
69878;SDS011;57161;43.136;24.706;2022-12-24T05:52:01;14.02;;;6.60;;
69878;SDS011;57161;43.136;24.706;2022-12-24T05:54:27;23.27;;;10.40;;
69878;SDS011;57161;43.136;24.706;2022-12-24T05:56:52;14.27;;;8.10;;
69878;SDS011;57161;43.136;24.706;2022-12-24T05:59:17;18.48;;;9.07;;
69878;SDS011;57161;43.136;24.706;2022-12-24T06:01:43;16.67;;;9.98;;
69878;SDS011;57161;43.136;24.706;2022-12-24T06:04:11;27.88;;;14.43;;
69878;SDS011;57161;43.136;24.706;2022-12-24T06:06:36;22.35;;;9.85;;
69878;SDS011;57161;43.136;24.706;2022-12-24T06:09:02;18.98;;;9.02;;
69878;SDS011;57161;43.136;24.706;2022-12-24T06:11:28;15.57;;;10.00;;
69878;SDS011;57161;43.136;24.706;2022-12-24T06:13:53;18.95;;;8.90;;
69878;SDS011;57161;43.136;24.706;2022-12-24T06:16:20;17.90;;;9.07;;
69878;SDS011;57161;43.136;24.706;2022-12-24T06:18:47;13.77;;;7.80;;
69878;SDS011;57161;43.136;24.706;2022-12-24T06:21:13;15.13;;;8.93;;
69878;SDS011;57161;43.136;24.706;2022-12-24T06:23:40;13.05;;;7.07;;
69878;SDS011;57161;43.136;24.706;2022-12-24T06:26:07;13.43;;;7.40;;
69878;SDS011;57161;43.136;24.706;2022-12-24T06:28:34;12.77;;;7.30;;
69878;SDS011;57161;43.136;24.706;2022-12-24T06:31:02;11.00;;;6.47;;
69878;SDS011;57161;43.136;24.706;2022-12-24T06:33:29;10.27;;;6.05;;
69878;SDS011;57161;43.136;24.706;2022-12-24T06:35:55;12.25;;;6.47;;
69878;SDS011;57161;43.136;24.706;2022-12-24T06:38:20;9.75;;;6.10;;
69878;SDS011;57161;43.136;24.706;2022-12-24T06:40:46;12.48;;;7.10;;
69878;SDS011;57161;43.136;24.706;2022-12-24T06:43:12;12.23;;;6.90;;
69878;SDS011;57161;43.136;24.706;2022-12-24T06:45:39;13.90;;;6.80;;
69878;SDS011;57161;43.136;24.706;2022-12-24T06:48:08;11.38;;;7.03;;
69878;SDS011;57161;43.136;24.706;2022-12-24T06:50:34;13.15;;;8.05;;
69878;SDS011;57161;43.136;24.706;2022-12-24T06:52:59;16.73;;;10.07;;
69878;SDS011;57161;43.136;24.706;2022-12-24T06:55:25;15.77;;;10.35;;
69878;SDS011;57161;43.136;24.706;2022-12-24T06:57:50;12.70;;;7.30;;
69878;SDS011;57161;43.136;24.706;2022-12-24T07:00:16;11.95;;;6.43;;
69878;SDS011;57161;43.136;24.706;2022-12-24T07:02:42;9.25;;;5.95;;
69878;SDS011;57161;43.136;24.706;2022-12-24T07:05:09;10.63;;;6.40;;
69878;SDS011;57161;43.136;24.706;2022-12-24T07:07:36;9.35;;;6.45;;
69878;SDS011;57161;43.136;24.706;2022-12-24T07:10:07;13.13;;;7.25;;
69878;SDS011;57161;43.136;24.706;2022-12-24T07:12:34;16.48;;;9.13;;
69878;SDS011;57161;43.136;24.706;2022-12-24T07:15:01;15.32;;;9.48;;
69878;SDS011;57161;43.136;24.706;2022-12-24T07:17:26;13.85;;;7.00;;
69878;SDS011;57161;43.136;24.706;2022-12-24T07:19:52;13.05;;;6.65;;
69878;SDS011;57161;43.136;24.706;2022-12-24T07:22:17;15.93;;;7.57;;
69878;SDS011;57161;43.136;24.706;2022-12-24T07:24:43;11.13;;;6.45;;
69878;SDS011;57161;43.136;24.706;2022-12-24T07:27:09;9.80;;;5.65;;
69878;SDS011;57161;43.136;24.706;2022-12-24T07:29:34;11.27;;;5.20;;
69878;SDS011;57161;43.136;24.706;2022-12-24T07:31:59;9.35;;;5.63;;
69878;SDS011;57161;43.136;24.706;2022-12-24T07:34:25;13.20;;;6.25;;
69878;SDS011;57161;43.136;24.706;2022-12-24T07:36:50;13.70;;;5.88;;
69878;SDS011;57161;43.136;24.706;2022-12-24T07:39:16;9.82;;;5.63;;
69878;SDS011;57161;43.136;24.706;2022-12-24T07:41:41;10.48;;;5.75;;
69878;SDS011;57161;43.136;24.706;2022-12-24T07:44:10;12.00;;;5.80;;
69878;SDS011;57161;43.136;24.706;2022-12-24T07:46:36;11.80;;;5.90;;
69878;SDS011;57161;43.136;24.706;2022-12-24T07:49:01;10.90;;;6.13;;
69878;SDS011;57161;43.136;24.706;2022-12-24T07:51:27;7.53;;;5.47;;
69878;SDS011;57161;43.136;24.706;2022-12-24T07:53:52;11.02;;;6.55;;
69878;SDS011;57161;43.136;24.706;2022-12-24T07:56:18;11.07;;;5.63;;
69878;SDS011;57161;43.136;24.706;2022-12-24T07:58:43;15.15;;;6.93;;
69878;SDS011;57161;43.136;24.706;2022-12-24T08:01:09;11.20;;;5.10;;
69878;SDS011;57161;43.136;24.706;2022-12-24T08:03:34;16.08;;;8.00;;
69878;SDS011;57161;43.136;24.706;2022-12-24T08:06:00;11.13;;;5.88;;
69878;SDS011;57161;43.136;24.706;2022-12-24T08:08:25;9.05;;;5.10;;
69878;SDS011;57161;43.136;24.706;2022-12-24T08:10:51;8.73;;;5.68;;
69878;SDS011;57161;43.136;24.706;2022-12-24T08:13:17;9.73;;;5.15;;
69878;SDS011;57161;43.136;24.706;2022-12-24T08:15:43;7.78;;;4.80;;
69878;SDS011;57161;43.136;24.706;2022-12-24T08:18:09;10.93;;;5.38;;
69878;SDS011;57161;43.136;24.706;2022-12-24T08:20:39;12.80;;;5.90;;
69878;SDS011;57161;43.136;24.706;2022-12-24T08:23:05;8.15;;;5.55;;
69878;SDS011;57161;43.136;24.706;2022-12-24T08:25:32;8.02;;;5.25;;
69878;SDS011;57161;43.136;24.706;2022-12-24T08:27:58;11.68;;;6.00;;
69878;SDS011;57161;43.136;24.706;2022-12-24T08:30:23;10.68;;;5.88;;
69878;SDS011;57161;43.136;24.706;2022-12-24T08:32:49;11.63;;;6.90;;
69878;SDS011;57161;43.136;24.706;2022-12-24T08:35:14;8.63;;;6.22;;
69878;SDS011;57161;43.136;24.706;2022-12-24T08:37:40;15.13;;;7.13;;
69878;SDS011;57161;43.136;24.706;2022-12-24T08:40:05;13.07;;;5.72;;
69878;SDS011;57161;43.136;24.706;2022-12-24T08:42:31;21.02;;;12.25;;
69878;SDS011;57161;43.136;24.706;2022-12-24T08:44:56;19.45;;;13.13;;
69878;SDS011;57161;43.136;24.706;2022-12-24T08:47:22;16.73;;;10.52;;
69878;SDS011;57161;43.136;24.706;2022-12-24T08:49:47;23.52;;;14.45;;
69878;SDS011;57161;43.136;24.706;2022-12-24T08:52:13;26.45;;;16.15;;
69878;SDS011;57161;43.136;24.706;2022-12-24T08:54:38;31.70;;;21.05;;
69878;SDS011;57161;43.136;24.706;2022-12-24T08:57:03;42.50;;;24.15;;
69878;SDS011;57161;43.136;24.706;2022-12-24T08:59:29;27.13;;;18.67;;
69878;SDS011;57161;43.136;24.706;2022-12-24T09:01:54;25.75;;;18.58;;
69878;SDS011;57161;43.136;24.706;2022-12-24T09:04:20;33.78;;;22.52;;
69878;SDS011;57161;43.136;24.706;2022-12-24T09:06:48;16.42;;;11.13;;
69878;SDS011;57161;43.136;24.706;2022-12-24T09:09:14;55.80;;;34.22;;
69878;SDS011;57161;43.136;24.706;2022-12-24T09:11:40;24.92;;;12.13;;
69878;SDS011;57161;43.136;24.706;2022-12-24T09:14:05;22.05;;;11.25;;
69878;SDS011;57161;43.136;24.706;2022-12-24T09:16:31;14.88;;;9.30;;
69878;SDS011;57161;43.136;24.706;2022-12-24T09:18:57;13.60;;;7.68;;
69878;SDS011;57161;43.136;24.706;2022-12-24T09:21:22;14.10;;;9.15;;
69878;SDS011;57161;43.136;24.706;2022-12-24T09:23:48;11.98;;;6.57;;
69878;SDS011;57161;43.136;24.706;2022-12-24T09:26:18;12.82;;;6.57;;
69878;SDS011;57161;43.136;24.706;2022-12-24T09:28:45;10.85;;;6.47;;
69878;SDS011;57161;43.136;24.706;2022-12-24T09:31:11;10.15;;;6.13;;
69878;SDS011;57161;43.136;24.706;2022-12-24T09:33:38;10.20;;;5.80;;
69878;SDS011;57161;43.136;24.706;2022-12-24T09:36:04;19.30;;;9.68;;
69878;SDS011;57161;43.136;24.706;2022-12-24T09:38:31;17.42;;;9.80;;
69878;SDS011;57161;43.136;24.706;2022-12-24T09:40:57;14.80;;;6.50;;
69878;SDS011;57161;43.136;24.706;2022-12-24T09:43:24;13.90;;;7.53;;
69878;SDS011;57161;43.136;24.706;2022-12-24T09:46:12;11.55;;;6.50;;
69878;SDS011;57161;43.136;24.706;2022-12-24T09:48:47;13.20;;;5.65;;
69878;SDS011;57161;43.136;24.706;2022-12-24T09:51:30;19.15;;;11.18;;
69878;SDS011;57161;43.136;24.706;2022-12-24T09:54:06;12.52;;;7.38;;
69878;SDS011;57161;43.136;24.706;2022-12-24T09:57:00;11.38;;;5.97;;
69878;SDS011;57161;43.136;24.706;2022-12-24T09:59:34;13.30;;;6.70;;
69878;SDS011;57161;43.136;24.706;2022-12-24T10:02:08;11.48;;;7.30;;
69878;SDS011;57161;43.136;24.706;2022-12-24T10:04:38;15.15;;;7.18;;
69878;SDS011;57161;43.136;24.706;2022-12-24T10:20:43;99.30;;;52.40;;
69878;SDS011;57161;43.136;24.706;2022-12-24T10:29:02;60.53;;;35.10;;
69878;SDS011;57161;43.136;24.706;2022-12-24T10:31:49;68.55;;;37.22;;
69878;SDS011;57161;43.136;24.706;2022-12-24T10:34:21;83.20;;;41.88;;
69878;SDS011;57161;43.136;24.706;2022-12-24T10:36:48;95.53;;;50.85;;
69878;SDS011;57161;43.136;24.706;2022-12-24T10:39:20;84.85;;;46.65;;
69878;SDS011;57161;43.136;24.706;2022-12-24T10:41:50;123.78;;;66.22;;
69878;SDS011;57161;43.136;24.706;2022-12-24T10:44:20;571.65;;;278.17;;
69878;SDS011;57161;43.136;24.706;2022-12-24T10:46:48;236.43;;;105.35;;
69878;SDS011;57161;43.136;24.706;2022-12-24T10:49:18;118.25;;;54.90;;
69878;SDS011;57161;43.136;24.706;2022-12-24T10:54:25;216.10;;;109.97;;
69878;SDS011;57161;43.136;24.706;2022-12-24T10:57:00;127.68;;;64.10;;
69878;SDS011;57161;43.136;24.706;2022-12-24T11:01:55;208.23;;;109.95;;
69878;SDS011;57161;43.136;24.706;2022-12-24T11:04:26;109.35;;;58.13;;
69878;SDS011;57161;43.136;24.706;2022-12-24T11:09:29;17.00;;;11.00;;
69878;SDS011;57161;43.136;24.706;2022-12-24T11:12:00;67.28;;;44.63;;
69878;SDS011;57161;43.136;24.706;2022-12-24T11:14:35;17.92;;;10.30;;
69878;SDS011;57161;43.136;24.706;2022-12-24T11:17:02;26.25;;;15.27;;
69878;SDS011;57161;43.136;24.706;2022-12-24T11:19:38;79.53;;;48.13;;
69878;SDS011;57161;43.136;24.706;2022-12-24T11:22:26;16.17;;;11.10;;
69878;SDS011;57161;43.136;24.706;2022-12-24T11:25:05;46.45;;;28.65;;
69878;SDS011;57161;43.136;24.706;2022-12-24T11:27:45;28.13;;;18.00;;
69878;SDS011;57161;43.136;24.706;2022-12-24T11:32:40;15.70;;;9.77;;
69878;SDS011;57161;43.136;24.706;2022-12-24T11:35:07;25.08;;;14.10;;
69878;SDS011;57161;43.136;24.706;2022-12-24T11:37:47;16.73;;;10.77;;
69878;SDS011;57161;43.136;24.706;2022-12-24T11:40:27;15.13;;;10.25;;
69878;SDS011;57161;43.136;24.706;2022-12-24T11:42:58;12.98;;;8.32;;
69878;SDS011;57161;43.136;24.706;2022-12-24T11:45:26;11.68;;;7.88;;
69878;SDS011;57161;43.136;24.706;2022-12-24T11:47:53;21.92;;;11.15;;
69878;SDS011;57161;43.136;24.706;2022-12-24T11:55:46;22.20;;;11.15;;
69878;SDS011;57161;43.136;24.706;2022-12-24T12:03:48;15.68;;;8.35;;
69878;SDS011;57161;43.136;24.706;2022-12-24T12:06:26;15.50;;;9.38;;
69878;SDS011;57161;43.136;24.706;2022-12-24T12:09:16;25.13;;;14.77;;
69878;SDS011;57161;43.136;24.706;2022-12-24T12:11:45;12.43;;;7.68;;
69878;SDS011;57161;43.136;24.706;2022-12-24T12:14:20;16.80;;;10.50;;
69878;SDS011;57161;43.136;24.706;2022-12-24T12:19:54;15.20;;;11.52;;
69878;SDS011;57161;43.136;24.706;2022-12-24T12:25:03;16.77;;;12.20;;
69878;SDS011;57161;43.136;24.706;2022-12-24T12:27:45;19.05;;;11.13;;
69878;SDS011;57161;43.136;24.706;2022-12-24T12:30:14;18.67;;;11.68;;
69878;SDS011;57161;43.136;24.706;2022-12-24T12:35:23;18.33;;;12.80;;
69878;SDS011;57161;43.136;24.706;2022-12-24T12:37:55;19.42;;;14.38;;
69878;SDS011;57161;43.136;24.706;2022-12-24T12:49:08;26.07;;;16.33;;
69878;SDS011;57161;43.136;24.706;2022-12-24T12:51:40;21.05;;;15.07;;
69878;SDS011;57161;43.136;24.706;2022-12-24T12:57:33;23.40;;;15.82;;
69878;SDS011;57161;43.136;24.706;2022-12-24T13:13:43;188.50;;;85.82;;
69878;SDS011;57161;43.136;24.706;2022-12-24T13:22:14;118.43;;;65.32;;
69878;SDS011;57161;43.136;24.706;2022-12-24T13:24:46;346.42;;;213.45;;
69878;SDS011;57161;43.136;24.706;2022-12-24T13:29:51;464.17;;;258.70;;
69878;SDS011;57161;43.136;24.706;2022-12-24T13:34:47;201.60;;;112.05;;
69878;SDS011;57161;43.136;24.706;2022-12-24T13:37:20;157.27;;;87.53;;
69878;SDS011;57161;43.136;24.706;2022-12-24T13:47:59;136.40;;;76.32;;
69878;SDS011;57161;43.136;24.706;2022-12-24T13:53:04;97.75;;;54.33;;
69878;SDS011;57161;43.136;24.706;2022-12-24T13:55:31;153.90;;;82.85;;
69878;SDS011;57161;43.136;24.706;2022-12-24T13:57:58;139.20;;;72.22;;
69878;SDS011;57161;43.136;24.706;2022-12-24T14:00:29;119.60;;;69.28;;
69878;SDS011;57161;43.136;24.706;2022-12-24T14:03:56;121.20;;;65.13;;
69878;SDS011;57161;43.136;24.706;2022-12-24T14:06:30;128.18;;;69.20;;
69878;SDS011;57161;43.136;24.706;2022-12-24T14:09:11;113.32;;;69.82;;
69878;SDS011;57161;43.136;24.706;2022-12-24T14:14:29;137.98;;;77.28;;
69878;SDS011;57161;43.136;24.706;2022-12-24T14:17:05;157.02;;;88.25;;
69878;SDS011;57161;43.136;24.706;2022-12-24T14:19:43;146.30;;;86.57;;
69878;SDS011;57161;43.136;24.706;2022-12-24T14:25:18;72.93;;;42.33;;
69878;SDS011;57161;43.136;24.706;2022-12-24T14:30:28;213.90;;;110.95;;
69878;SDS011;57161;43.136;24.706;2022-12-24T14:32:54;183.38;;;101.88;;
69878;SDS011;57161;43.136;24.706;2022-12-24T14:49:00;57.97;;;35.17;;
69878;SDS011;57161;43.136;24.706;2022-12-24T14:51:43;75.03;;;43.42;;
69878;SDS011;57161;43.136;24.706;2022-12-24T14:54:29;100.47;;;54.83;;
69878;SDS011;57161;43.136;24.706;2022-12-24T15:02:46;194.77;;;122.28;;
69878;SDS011;57161;43.136;24.706;2022-12-24T15:07:53;72.07;;;50.38;;
69878;SDS011;57161;43.136;24.706;2022-12-24T15:10:24;33.70;;;22.08;;
69878;SDS011;57161;43.136;24.706;2022-12-24T15:12:54;28.85;;;18.60;;
69878;SDS011;57161;43.136;24.706;2022-12-24T15:15:21;51.72;;;28.52;;
69878;SDS011;57161;43.136;24.706;2022-12-24T15:17:48;76.20;;;37.15;;
69878;SDS011;57161;43.136;24.706;2022-12-24T15:20:17;86.88;;;51.08;;
69878;SDS011;57161;43.136;24.706;2022-12-24T15:22:51;85.50;;;52.70;;
69878;SDS011;57161;43.136;24.706;2022-12-24T15:25:24;126.47;;;72.15;;
69878;SDS011;57161;43.136;24.706;2022-12-24T15:27:55;100.30;;;49.85;;
69878;SDS011;57161;43.136;24.706;2022-12-24T15:30:24;80.00;;;46.40;;
69878;SDS011;57161;43.136;24.706;2022-12-24T15:32:52;43.80;;;28.27;;
69878;SDS011;57161;43.136;24.706;2022-12-24T15:35:32;73.22;;;40.40;;
69878;SDS011;57161;43.136;24.706;2022-12-24T15:37:59;55.33;;;30.90;;
69878;SDS011;57161;43.136;24.706;2022-12-24T15:40:26;44.90;;;25.42;;
69878;SDS011;57161;43.136;24.706;2022-12-24T15:42:52;30.40;;;20.23;;
69878;SDS011;57161;43.136;24.706;2022-12-24T15:45:25;26.33;;;14.48;;
69878;SDS011;57161;43.136;24.706;2022-12-24T15:47:54;27.27;;;14.32;;
69878;SDS011;57161;43.136;24.706;2022-12-24T15:50:44;20.25;;;13.48;;
69878;SDS011;57161;43.136;24.706;2022-12-24T15:53:16;20.75;;;14.63;;
69878;SDS011;57161;43.136;24.706;2022-12-24T15:55:45;20.02;;;13.10;;
69878;SDS011;57161;43.136;24.706;2022-12-24T15:58:27;30.00;;;21.15;;
69878;SDS011;57161;43.136;24.706;2022-12-24T16:01:02;19.75;;;14.20;;
69878;SDS011;57161;43.136;24.706;2022-12-24T16:03:28;21.40;;;14.50;;
69878;SDS011;57161;43.136;24.706;2022-12-24T16:06:04;23.83;;;15.75;;
69878;SDS011;57161;43.136;24.706;2022-12-24T16:08:33;23.83;;;16.02;;
69878;SDS011;57161;43.136;24.706;2022-12-24T16:16:11;24.88;;;17.15;;
69878;SDS011;57161;43.136;24.706;2022-12-24T16:18:41;27.98;;;18.90;;
69878;SDS011;57161;43.136;24.706;2022-12-24T16:21:19;23.95;;;16.20;;
69878;SDS011;57161;43.136;24.706;2022-12-24T16:23:49;23.65;;;14.30;;
69878;SDS011;57161;43.136;24.706;2022-12-24T16:26:18;18.70;;;12.75;;
69878;SDS011;57161;43.136;24.706;2022-12-24T16:28:44;20.02;;;12.27;;
69878;SDS011;57161;43.136;24.706;2022-12-24T16:31:27;19.17;;;12.18;;
69878;SDS011;57161;43.136;24.706;2022-12-24T16:33:58;19.88;;;12.27;;
69878;SDS011;57161;43.136;24.706;2022-12-24T16:36:25;20.90;;;11.88;;
69878;SDS011;57161;43.136;24.706;2022-12-24T16:38:51;16.50;;;10.90;;
69878;SDS011;57161;43.136;24.706;2022-12-24T16:41:35;14.48;;;8.90;;
69878;SDS011;57161;43.136;24.706;2022-12-24T16:44:20;20.65;;;12.95;;
69878;SDS011;57161;43.136;24.706;2022-12-24T16:46:46;29.23;;;16.00;;
69878;SDS011;57161;43.136;24.706;2022-12-24T16:49:15;31.42;;;17.67;;
69878;SDS011;57161;43.136;24.706;2022-12-24T16:51:42;40.88;;;21.75;;
69878;SDS011;57161;43.136;24.706;2022-12-24T16:54:12;24.70;;;13.55;;
69878;SDS011;57161;43.136;24.706;2022-12-24T16:56:39;23.73;;;13.35;;
69878;SDS011;57161;43.136;24.706;2022-12-24T16:59:06;31.60;;;17.35;;
69878;SDS011;57161;43.136;24.706;2022-12-24T17:01:39;29.00;;;17.52;;
69878;SDS011;57161;43.136;24.706;2022-12-24T17:04:04;23.25;;;15.73;;
69878;SDS011;57161;43.136;24.706;2022-12-24T17:06:30;43.35;;;25.00;;
69878;SDS011;57161;43.136;24.706;2022-12-24T17:08:55;70.75;;;41.42;;
69878;SDS011;57161;43.136;24.706;2022-12-24T17:11:22;89.20;;;49.90;;
69878;SDS011;57161;43.136;24.706;2022-12-24T17:13:48;87.65;;;49.20;;